Time,TemperatureF,DewpointF,PressureIn,WindDirection,WindDirectionDegrees,WindSpeedMPH,WindSpeedGustMPH,Humidity,HourlyPrecipIn,Conditions,Clouds,dailyrainin,SoftwareType,DateUTC
2013-03-06 00:05:00,22.7,8.0,29.93,West,267,0.0,0.0,54,0.00,,,0.00,weatherlink.com 1.10,2013-03-06 09:05:00,
2013-03-06 00:20:00,21.5,7.0,29.93,West,267,0.0,0.0,54,0.00,,,0.00,weatherlink.com 1.10,2013-03-06 09:20:00,
2013-03-06 00:36:00,20.8,7.0,29.92,West,267,0.0,0.0,55,0.00,,,0.00,weatherlink.com 1.10,2013-03-06 09:36:00,
2013-03-06 00:50:00,22.1,7.0,29.91,NW,314,0.0,1.0,52,0.00,,,0.00,weatherlink.com 1.10,2013-03-06 09:50:00,
2013-03-06 01:06:00,21.0,7.0,29.91,NW,314,0.0,1.0,55,0.00,,,0.00,weatherlink.com 1.10,2013-03-06 10:06:00,
2013-03-06 01:21:00,20.2,7.0,29.91,WNW,284,1.0,1.0,56,0.00,,,0.00,weatherlink.com 1.10,2013-03-06 10:21:00,
2013-03-06 01:36:00,19.7,6.0,29.91,WNW,300,1.0,2.0,56,0.00,,,0.00,weatherlink.com 1.10,2013-03-06 10:36:00,
2013-03-06 01:51:00,19.2,7.0,29.91,SE,139,0.0,1.0,58,0.00,,,0.00,weatherlink.com 1.10,2013-03-06 10:51:00,
2013-03-06 02:06:00,19.9,6.0,29.90,SW,228,1.0,1.0,56,0.00,,,0.00,weatherlink.com 1.10,2013-03-06 11:06:00,
2013-03-06 02:21:00,20.1,5.0,29.90,SW,230,0.0,0.0,53,0.00,,,0.00,weatherlink.com 1.10,2013-03-06 11:21:00,
2013-03-06 02:36:00,19.2,5.0,29.90,SW,231,0.0,0.0,54,0.00,,,0.00,weatherlink.com 1.10,2013-03-06 11:36:00,
2013-03-06 02:51:00,18.6,6.0,29.90,SW,232,0.0,0.0,57,0.00,,,0.00,weatherlink.com 1.10,2013-03-06 11:51:00,
2013-03-06 03:06:00,18.2,5.0,29.89,SW,231,0.0,0.0,57,0.00,,,0.00,weatherlink.com 1.10,2013-03-06 12:06:00,
2013-03-06 03:21:00,18.1,5.0,29.89,SW,230,0.0,0.0,58,0.00,,,0.00,weatherlink.com 1.10,2013-03-06 12:21:00,
2013-03-06 03:36:00,18.2,5.0,29.89,SW,230,0.0,0.0,57,0.00,,,0.00,weatherlink.com 1.10,2013-03-06 12:36:00,
2013-03-06 03:51:00,19.2,5.0,29.88,NNW,347,1.0,2.0,54,0.00,,,0.00,weatherlink.com 1.10,2013-03-06 12:51:00,
2013-03-06 04:06:00,19.2,5.0,29.88,West,266,0.0,1.0,54,0.00,,,0.00,weatherlink.com 1.10,2013-03-06 13:06:00,
2013-03-06 04:21:00,18.6,5.0,29.88,West,278,1.0,2.0,55,0.00,,,0.00,weatherlink.com 1.10,2013-03-06 13:21:00,
2013-03-06 04:36:00,18.1,5.0,29.88,West,278,0.0,1.0,56,0.00,,,0.00,weatherlink.com 1.10,2013-03-06 13:36:00,
2013-03-06 04:51:00,18.0,5.0,29.88,West,277,0.0,1.0,56,0.00,,,0.00,weatherlink.com 1.10,2013-03-06 13:51:00,
2013-03-06 05:06:00,17.8,5.0,29.88,West,276,0.0,1.0,57,0.00,,,0.00,weatherlink.com 1.10,2013-03-06 14:06:00,
2013-03-06 05:21:00,17.7,5.0,29.88,SSE,153,0.0,0.0,57,0.00,,,0.00,weatherlink.com 1.10,2013-03-06 14:21:00,
2013-03-06 05:36:00,17.6,4.0,29.88,SSE,153,0.0,0.0,56,0.00,,,0.00,weatherlink.com 1.10,2013-03-06 14:36:00,
2013-03-06 05:51:00,17.7,5.0,29.88,WSW,245,0.0,0.0,57,0.00,,,0.00,weatherlink.com 1.10,2013-03-06 14:51:00,
2013-03-06 06:06:00,17.4,4.0,29.88,WSW,245,0.0,0.0,57,0.00,,,0.00,weatherlink.com 1.10,2013-03-06 15:06:00,
2013-03-06 06:21:00,17.0,4.0,29.88,WSW,256,0.0,0.0,58,0.00,,,0.00,weatherlink.com 1.10,2013-03-06 15:21:00,
2013-03-06 06:36:00,16.6,4.0,29.88,West,259,0.0,0.0,58,0.00,,,0.00,weatherlink.com 1.10,2013-03-06 15:36:00,
2013-03-06 06:51:00,16.5,4.0,29.88,West,259,0.0,0.0,59,0.00,,,0.00,weatherlink.com 1.10,2013-03-06 15:51:00,
2013-03-06 07:06:00,17.2,4.0,29.88,East,82,0.0,0.0,56,0.00,,,0.00,weatherlink.com 1.10,2013-03-06 16:06:00,
2013-03-06 07:21:00,15.8,4.0,29.88,East,82,0.0,0.0,59,0.00,,,0.00,weatherlink.com 1.10,2013-03-06 16:21:00,
2013-03-06 07:36:00,14.6,4.0,29.88,East,82,0.0,0.0,62,0.00,,,0.00,weatherlink.com 1.10,2013-03-06 16:36:00,
2013-03-06 07:51:00,15.1,4.0,29.88,East,82,0.0,0.0,62,0.00,,,0.00,weatherlink.com 1.10,2013-03-06 16:51:00,
2013-03-06 08:06:00,14.8,4.0,29.88,East,82,0.0,0.0,62,0.00,,,0.00,weatherlink.com 1.10,2013-03-06 17:06:00,
2013-03-06 08:21:00,15.8,4.0,29.88,East,82,0.0,0.0,60,0.00,,,0.00,weatherlink.com 1.10,2013-03-06 17:21:00,
2013-03-06 08:36:00,17.3,4.0,29.88,East,82,0.0,0.0,57,0.00,,,0.00,weatherlink.com 1.10,2013-03-06 17:36:00,
2013-03-06 08:51:00,18.1,5.0,29.88,East,82,0.0,0.0,56,0.00,,,0.00,weatherlink.com 1.10,2013-03-06 17:51:00,
2013-03-06 09:06:00,18.9,5.0,29.88,SE,142,0.0,0.0,55,0.00,,,0.00,weatherlink.com 1.10,2013-03-06 18:06:00,
2013-03-06 09:21:00,20.1,6.0,29.88,SE,142,0.0,0.0,54,0.00,,,0.00,weatherlink.com 1.10,2013-03-06 18:21:00,
2013-03-06 09:36:00,20.3,6.0,29.88,SE,139,1.0,2.0,53,0.00,,,0.00,weatherlink.com 1.10,2013-03-06 18:36:00,
2013-03-06 09:51:00,20.5,6.0,29.88,SE,131,0.0,1.0,53,0.00,,,0.00,weatherlink.com 1.10,2013-03-06 18:51:00,
2013-03-06 10:06:00,21.1,6.0,29.89,SE,139,1.0,2.0,52,0.00,,,0.00,weatherlink.com 1.10,2013-03-06 19:06:00,
2013-03-06 10:21:00,20.8,6.0,29.89,ESE,120,1.0,2.0,53,0.00,,,0.00,weatherlink.com 1.10,2013-03-06 19:21:00,
2013-03-06 10:36:00,21.3,6.0,29.89,ESE,115,2.0,3.0,53,0.00,,,0.00,weatherlink.com 1.10,2013-03-06 19:36:00,
2013-03-06 10:51:00,18.8,6.0,29.90,SE,129,1.0,4.0,57,0.00,,,0.00,weatherlink.com 1.10,2013-03-06 19:51:00,
2013-03-06 11:06:00,19.1,6.0,29.90,SE,131,1.0,2.0,57,0.00,,,0.00,weatherlink.com 1.10,2013-03-06 20:06:00,
2013-03-06 11:21:00,19.4,6.0,29.90,SSE,163,0.0,1.0,56,0.00,,,0.00,weatherlink.com 1.10,2013-03-06 20:21:00,
2013-03-06 11:37:00,18.0,5.0,29.90,SE,135,0.0,2.0,58,0.00,,,0.00,weatherlink.com 1.10,2013-03-06 20:37:00,
2013-03-06 11:51:00,18.4,5.0,29.91,SE,143,0.0,2.0,57,0.00,,,0.00,weatherlink.com 1.10,2013-03-06 20:51:00,
2013-03-06 12:06:00,17.8,5.0,29.91,ESE,122,0.0,2.0,58,0.00,,,0.00,weatherlink.com 1.10,2013-03-06 21:06:00,
2013-03-06 12:21:00,17.4,6.0,29.91,SE,132,1.0,1.0,60,0.00,,,0.00,weatherlink.com 1.10,2013-03-06 21:21:00,
2013-03-06 12:36:00,17.8,6.0,29.91,SE,143,0.0,1.0,59,0.00,,,0.00,weatherlink.com 1.10,2013-03-06 21:36:00,
2013-03-06 12:51:00,18.6,6.0,29.91,WSW,257,0.0,1.0,59,0.00,,,0.00,weatherlink.com 1.10,2013-03-06 21:51:00,
2013-03-06 13:06:00,18.5,6.0,29.91,WNW,285,0.0,1.0,59,0.00,,,0.00,weatherlink.com 1.10,2013-03-06 22:06:00,
2013-03-06 13:22:00,19.7,7.0,29.92,SE,146,1.0,3.0,57,0.00,,,0.00,weatherlink.com 1.10,2013-03-06 22:22:00,
2013-03-06 13:37:00,19.1,7.0,29.92,SE,142,0.0,3.0,59,0.00,,,0.00,weatherlink.com 1.10,2013-03-06 22:37:00,
2013-03-06 13:52:00,18.2,6.0,29.92,SE,145,0.0,2.0,60,0.00,,,0.00,weatherlink.com 1.10,2013-03-06 22:52:00,
2013-03-06 14:07:00,18.0,6.0,29.92,SE,135,0.0,3.0,60,0.00,,,0.00,weatherlink.com 1.10,2013-03-06 23:07:00,
2013-03-06 14:22:00,20.3,7.0,29.91,SE,142,0.0,1.0,57,0.00,,,0.00,weatherlink.com 1.10,2013-03-06 23:22:00,
2013-03-06 14:37:00,21.6,8.0,29.90,SE,141,0.0,0.0,55,0.00,,,0.00,weatherlink.com 1.10,2013-03-06 23:37:00,
2013-03-06 14:52:00,21.8,8.0,29.90,SSE,148,3.0,3.0,55,0.00,,,0.00,weatherlink.com 1.10,2013-03-06 23:52:00,
2013-03-06 15:07:00,21.2,8.0,29.90,SE,138,3.0,3.0,57,0.00,,,0.00,weatherlink.com 1.10,2013-03-07 00:07:00,
2013-03-06 15:22:00,21.1,8.0,29.91,SSE,156,0.0,2.0,57,0.00,,,0.00,weatherlink.com 1.10,2013-03-07 00:22:00,
2013-03-06 15:37:00,20.3,8.0,29.91,SE,144,2.0,4.0,58,0.00,,,0.00,weatherlink.com 1.10,2013-03-07 00:37:00,
2013-03-06 15:52:00,19.0,7.0,29.91,SE,138,0.0,3.0,60,0.00,,,0.00,weatherlink.com 1.10,2013-03-07 00:52:00,
2013-03-06 16:07:00,18.6,7.0,29.91,South,169,0.0,2.0,60,0.00,,,0.00,weatherlink.com 1.10,2013-03-07 01:07:00,
2013-03-06 16:22:00,19.6,7.0,29.91,WNW,287,0.0,3.0,59,0.00,,,0.00,weatherlink.com 1.10,2013-03-07 01:22:00,
2013-03-06 16:37:00,20.3,7.0,29.91,West,276,0.0,2.0,56,0.00,,,0.00,weatherlink.com 1.10,2013-03-07 01:37:00,
2013-03-06 16:52:00,20.3,7.0,29.91,West,271,0.0,1.0,57,0.00,,,0.00,weatherlink.com 1.10,2013-03-07 01:52:00,
2013-03-06 17:07:00,20.3,8.0,29.91,West,271,0.0,0.0,58,0.00,,,0.00,weatherlink.com 1.10,2013-03-07 02:07:00,
2013-03-06 17:22:00,19.7,7.0,29.91,SE,126,0.0,0.0,59,0.00,,,0.00,weatherlink.com 1.10,2013-03-07 02:22:00,
2013-03-06 17:37:00,19.2,8.0,29.91,SE,125,0.0,0.0,61,0.00,,,0.00,weatherlink.com 1.10,2013-03-07 02:37:00,
2013-03-06 17:52:00,18.6,8.0,29.92,SE,125,0.0,0.0,63,0.00,,,0.00,weatherlink.com 1.10,2013-03-07 02:52:00,
2013-03-06 18:07:00,17.7,8.0,29.93,West,267,0.0,0.0,65,0.00,,,0.00,weatherlink.com 1.10,2013-03-07 03:07:00,
2013-03-06 18:22:00,16.8,7.0,29.92,West,266,0.0,0.0,66,0.00,,,0.00,weatherlink.com 1.10,2013-03-07 03:22:00,
2013-03-06 18:39:00,17.5,7.0,29.92,West,266,0.0,0.0,64,0.00,,,0.00,weatherlink.com 1.10,2013-03-07 03:39:00,
2013-03-06 18:52:00,16.2,7.0,29.93,West,267,0.0,0.0,67,0.00,,,0.00,weatherlink.com 1.10,2013-03-07 03:52:00,
2013-03-06 19:07:00,15.1,6.0,29.92,West,267,0.0,0.0,68,0.00,,,0.00,weatherlink.com 1.10,2013-03-07 04:07:00,
2013-03-06 19:22:00,14.5,6.0,29.92,West,267,0.0,0.0,68,0.00,,,0.00,weatherlink.com 1.10,2013-03-07 04:22:00,
2013-03-06 19:37:00,13.7,6.0,29.92,West,267,0.0,0.0,72,0.00,,,0.00,weatherlink.com 1.10,2013-03-07 04:37:00,
2013-03-06 19:52:00,13.3,6.0,29.91,West,266,0.0,0.0,73,0.00,,,0.00,weatherlink.com 1.10,2013-03-07 04:52:00,
2013-03-06 20:07:00,14.8,7.0,29.91,ENE,75,1.0,3.0,70,0.00,,,0.00,weatherlink.com 1.10,2013-03-07 05:07:00,
2013-03-06 20:22:00,14.3,7.0,29.91,ENE,68,2.0,3.0,71,0.00,,,0.00,weatherlink.com 1.10,2013-03-07 05:22:00,
2013-03-06 20:37:00,15.2,7.0,29.91,NE,49,2.0,3.0,70,0.00,,,0.00,weatherlink.com 1.10,2013-03-07 05:37:00,
2013-03-06 20:52:00,15.1,6.0,29.91,NE,44,1.0,2.0,68,0.00,,,0.00,weatherlink.com 1.10,2013-03-07 05:52:00,
2013-03-06 21:07:00,15.8,7.0,29.90,ENE,61,1.0,2.0,68,0.00,,,0.00,weatherlink.com 1.10,2013-03-07 06:07:00,
2013-03-06 21:22:00,16.2,7.0,29.90,ENE,61,0.0,1.0,67,0.00,,,0.00,weatherlink.com 1.10,2013-03-07 06:22:00,
2013-03-06 21:37:00,15.5,7.0,29.91,ENE,60,0.0,0.0,68,0.00,,,0.00,weatherlink.com 1.10,2013-03-07 06:37:00,
2013-03-06 21:52:00,15.4,7.0,29.90,ENE,60,0.0,1.0,68,0.00,,,0.00,weatherlink.com 1.10,2013-03-07 06:52:00,
2013-03-06 22:07:00,15.8,7.0,29.89,ENE,60,0.0,0.0,68,0.00,,,0.00,weatherlink.com 1.10,2013-03-07 07:07:00,
2013-03-06 22:22:00,16.7,8.0,29.90,ENE,58,0.0,0.0,68,0.00,,,0.00,weatherlink.com 1.10,2013-03-07 07:22:00,
2013-03-06 22:37:00,17.2,8.0,29.89,ENE,58,0.0,0.0,66,0.00,,,0.00,weatherlink.com 1.10,2013-03-07 07:37:00,
2013-03-06 22:52:00,17.5,8.0,29.89,NE,43,0.0,0.0,66,0.00,,,0.00,weatherlink.com 1.10,2013-03-07 07:52:00,
2013-03-06 23:22:00,18.0,8.0,29.88,NNE,22,0.0,0.0,66,0.00,,,0.00,weatherlink.com 1.10,2013-03-07 08:22:00,
2013-03-06 23:37:00,19.9,10.0,29.87,NE,53,2.0,4.0,65,0.00,,,0.00,weatherlink.com 1.10,2013-03-07 08:37:00,
2013-03-06 23:52:00,20.6,10.0,29.87,NE,49,1.0,2.0,63,0.00,,,0.00,weatherlink.com 1.10,2013-03-07 08:52:00,